createdAt,value
2023-04-16T00:01:03.093Z,49.58
2023-04-16T00:06:07.129Z,49.57
2023-04-16T00:11:12.175Z,51.87
2023-04-16T00:16:15.624Z,49.90
2023-04-16T00:21:19.120Z,49.13
2023-04-16T00:26:23.923Z,48.58
2023-04-16T00:31:28.757Z,50.62
2023-04-16T00:36:32.979Z,50.01
2023-04-16T00:41:38.901Z,49.33
2023-04-16T00:46:42.847Z,50.58
2023-04-16T00:51:46.267Z,51.85
2023-04-16T00:56:52.174Z,49.32
2023-04-16T01:01:55.796Z,49.66
2023-04-16T01:06:59.303Z,51.41
2023-04-16T01:12:04.248Z,51.04
2023-04-16T01:17:07.656Z,52.16
2023-04-16T01:22:12.392Z,51.87
2023-04-16T01:27:16.092Z,51.42
2023-04-16T01:32:19.598Z,51.02
2023-04-16T01:37:25.420Z,52.98
2023-04-16T01:42:29.086Z,52.13
2023-04-16T01:47:32.684Z,51.77
2023-04-16T01:52:37.756Z,50.84
2023-04-16T01:57:41.233Z,50.58
2023-04-16T02:02:44.966Z,52.87
2023-04-16T02:07:52.896Z,52.26
2023-04-16T02:12:56.462Z,53.51
2023-04-16T02:17:59.897Z,52.41
2023-04-16T02:23:04.744Z,50.80
2023-04-16T02:28:08.982Z,50.92
2023-04-16T02:33:16.342Z,49.84
2023-04-16T02:38:31.956Z,49.10
2023-04-16T02:43:35.701Z,51.52
2023-04-16T02:48:39.154Z,51.03
2023-04-16T02:53:45.948Z,53.59
2023-04-16T02:58:49.856Z,53.85
2023-04-16T03:03:53.384Z,53.02
2023-04-16T03:08:58.308Z,52.32
2023-04-16T03:14:01.749Z,50.43
2023-04-16T03:19:05.594Z,50.35
2023-04-16T03:24:10.537Z,50.54
2023-04-16T03:29:13.929Z,49.17
2023-04-16T03:34:17.542Z,50.43
2023-04-16T03:39:22.415Z,51.45
2023-04-16T03:44:26.132Z,50.94
2023-04-16T03:49:29.646Z,50.91
2023-04-16T03:54:36.794Z,49.59
2023-04-16T03:59:54.316Z,51.08
2023-04-16T04:04:58.665Z,50.79
2023-04-16T04:10:03.763Z,49.54
2023-04-16T04:15:12.114Z,51.75
2023-04-16T04:20:15.589Z,50.51
2023-04-16T04:25:23.719Z,50.72
2023-04-16T04:30:27.474Z,51.98
2023-04-16T04:35:31.255Z,52.13
2023-04-16T04:40:37.488Z,52.68
2023-04-16T04:45:41.277Z,51.83
2023-04-16T04:50:46.449Z,51.78
2023-04-16T04:55:54.203Z,51.98
2023-04-16T05:01:00.868Z,53.10
2023-04-16T05:06:04.793Z,52.58
2023-04-16T05:11:09.628Z,54.63
2023-04-16T05:16:13.204Z,54.55
2023-04-16T05:21:16.636Z,56.71
2023-04-16T05:26:22.769Z,53.55
2023-04-16T05:31:26.221Z,52.46
2023-04-16T05:36:29.689Z,53.30
2023-04-16T05:41:34.551Z,54.20
2023-04-16T05:46:38.186Z,52.07
2023-04-16T05:51:41.916Z,51.72
2023-04-16T05:56:46.780Z,50.05
2023-04-16T06:01:50.255Z,53.25
2023-04-16T06:06:53.723Z,52.34
2023-04-16T06:11:58.964Z,50.43
2023-04-16T06:17:02.440Z,52.65
2023-04-16T06:22:06.441Z,52.29
2023-04-16T06:27:11.342Z,50.41
2023-04-16T06:32:14.870Z,49.25
2023-04-16T06:37:18.277Z,52.65
2023-04-16T06:42:23.090Z,50.84
2023-04-16T06:47:29.130Z,50.52
2023-04-16T06:52:32.623Z,49.04
2023-04-16T06:57:37.848Z,49.68
2023-04-16T07:02:41.427Z,47.99
2023-04-16T07:07:44.925Z,49.38
2023-04-16T07:12:49.825Z,49.99
2023-04-16T07:17:53.237Z,48.32
2023-04-16T07:22:56.678Z,46.62
2023-04-16T07:28:01.380Z,46.75
2023-04-16T07:33:05.439Z,47.35
2023-04-16T07:38:08.894Z,47.95
2023-04-16T07:43:15.159Z,49.84
2023-04-16T07:48:18.761Z,49.53
2023-04-16T07:53:22.171Z,47.89
2023-04-16T07:58:26.976Z,49.33
2023-04-16T08:03:30.690Z,48.68
2023-04-16T08:08:34.354Z,46.88
2023-04-16T08:13:39.175Z,45.98
2023-04-16T08:18:42.563Z,49.31
2023-04-16T08:23:45.969Z,47.64
2023-04-16T08:28:50.769Z,46.22
2023-04-16T08:33:54.203Z,45.21
2023-04-16T08:38:57.587Z,45.54
2023-04-16T08:44:08.755Z,46.38
2023-04-16T08:49:17.868Z,46.52
2023-04-16T08:54:36.274Z,44.58
2023-04-16T08:59:41.353Z,44.97
2023-04-16T09:04:45.021Z,48.39
2023-04-16T09:09:49.853Z,46.38
2023-04-16T09:14:54.742Z,46.24
2023-04-16T09:19:58.249Z,46.42
2023-04-16T09:25:01.634Z,45.89
2023-04-16T09:30:21.668Z,46.68
2023-04-16T09:35:25.185Z,45.16
2023-04-16T09:40:31.037Z,45.71
2023-04-16T09:45:49.480Z,45.04
2023-04-16T09:50:53.025Z,44.79
2023-04-16T09:55:57.895Z,45.63
2023-04-16T10:01:03.748Z,47.99
2023-04-16T10:06:15.787Z,47.07
2023-04-16T10:11:20.641Z,48.09
2023-04-16T10:16:25.767Z,46.24
2023-04-16T10:21:33.639Z,47.50
2023-04-16T10:26:37.521Z,47.94
2023-04-16T10:31:42.948Z,50.75
2023-04-16T10:36:49.474Z,51.17
2023-04-16T10:42:08.029Z,52.17
2023-04-16T10:47:13.655Z,52.81
2023-04-16T10:52:17.964Z,51.66
2023-04-16T10:57:21.506Z,51.07
2023-04-16T11:02:30.303Z,49.96
2023-04-16T11:07:34.753Z,52.25
2023-04-16T11:12:39.912Z,49.69
2023-04-16T11:17:46.798Z,50.79
2023-04-16T11:22:50.831Z,52.24
2023-04-16T11:27:54.878Z,50.12
2023-04-16T11:32:59.928Z,49.89
2023-04-16T11:38:04.058Z,50.13
2023-04-16T11:43:15.274Z,51.09
2023-04-16T11:48:20.088Z,53.07
2023-04-16T11:53:23.641Z,50.41
2023-04-16T11:58:27.015Z,51.02
2023-04-16T12:03:43.419Z,53.74
2023-04-16T12:08:47.530Z,51.24
2023-04-16T12:14:09.378Z,49.78
2023-04-16T12:19:14.560Z,48.86
2023-04-16T12:24:20.811Z,49.90
2023-04-16T12:29:27.707Z,49.52
2023-04-16T12:34:48.913Z,50.76
2023-04-16T12:39:53.055Z,52.29
2023-04-16T12:44:56.484Z,49.32
2023-04-16T12:50:01.421Z,49.23
2023-04-16T12:55:05.530Z,49.38
2023-04-16T13:00:10.856Z,48.43
2023-04-16T13:05:16.818Z,48.40
2023-04-16T13:10:23.388Z,48.66
2023-04-16T13:15:26.878Z,48.16
2023-04-16T13:20:31.865Z,48.00
2023-04-16T13:25:35.426Z,46.62
2023-04-16T13:30:38.862Z,46.12
2023-04-16T13:35:43.760Z,45.14
2023-04-16T13:40:47.155Z,46.24
2023-04-16T13:45:50.662Z,44.63
2023-04-16T13:50:55.924Z,45.57
2023-04-16T13:55:59.884Z,41.94
2023-04-16T14:01:03.381Z,44.84
2023-04-16T14:06:08.274Z,42.74
2023-04-16T14:11:12.107Z,42.01
2023-04-16T14:16:15.699Z,42.67
2023-04-16T14:21:20.667Z,42.00
2023-04-16T14:26:24.151Z,43.20
2023-04-16T14:31:27.735Z,44.92
2023-04-16T14:36:32.575Z,44.60
2023-04-16T14:41:35.976Z,43.19
2023-04-16T14:46:41.057Z,43.85
2023-04-16T14:51:46.426Z,41.45
2023-04-16T14:56:50.815Z,41.65
2023-04-16T15:01:55.805Z,41.37
2023-04-16T15:07:00.667Z,41.16
2023-04-16T15:12:04.360Z,41.43
2023-04-16T15:17:07.960Z,40.60
2023-04-16T15:22:14.672Z,41.76
2023-04-16T15:27:19.237Z,41.28
2023-04-16T15:32:22.857Z,41.00
2023-04-16T15:37:27.840Z,40.96
2023-04-16T15:42:32.126Z,40.33
2023-04-16T15:47:37.201Z,40.29
2023-04-16T15:52:43.298Z,40.12
2023-04-16T15:57:47.040Z,40.62
2023-04-16T16:02:50.595Z,40.15
2023-04-16T16:07:55.513Z,39.72
2023-04-16T16:13:05.138Z,39.30
2023-04-16T16:18:09.210Z,39.59
2023-04-16T16:23:14.092Z,39.46
2023-04-16T16:28:17.543Z,38.01
2023-04-16T16:33:20.998Z,39.07
2023-04-16T16:38:25.893Z,38.69
2023-04-16T16:43:29.288Z,37.40
2023-04-16T16:48:32.751Z,36.39
2023-04-16T16:53:37.583Z,39.51
2023-04-16T16:58:44.222Z,39.06
2023-04-16T17:03:47.735Z,41.33
2023-04-16T17:08:52.556Z,40.05
2023-04-16T17:13:55.915Z,40.42
2023-04-16T17:19:00.032Z,41.20
2023-04-16T17:24:05.889Z,41.36
2023-04-16T17:29:09.377Z,41.40
2023-04-16T17:34:13.053Z,41.20
2023-04-16T17:39:18.022Z,43.45
2023-04-16T17:44:22.924Z,41.98
2023-04-16T17:49:26.320Z,41.81
2023-04-16T17:54:31.092Z,43.04
2023-04-16T17:59:34.522Z,43.81
2023-04-16T18:04:38.402Z,41.74
2023-04-16T18:09:43.232Z,42.02
2023-04-16T18:14:46.667Z,42.76
2023-04-16T18:19:50.416Z,42.19
2023-04-16T18:24:55.261Z,42.52
2023-04-16T18:29:58.686Z,43.02
2023-04-16T18:35:02.188Z,42.57
2023-04-16T18:40:08.881Z,43.06
2023-04-16T18:45:16.490Z,45.39
2023-04-16T18:50:24.854Z,44.01
2023-04-16T18:55:31.818Z,42.89
2023-04-16T19:00:35.413Z,43.20
2023-04-16T19:05:38.820Z,43.69
2023-04-16T19:10:47.756Z,43.25
2023-04-16T19:15:51.102Z,44.20
2023-04-16T19:20:59.794Z,43.52
2023-04-16T19:26:04.781Z,44.67
2023-04-16T19:31:08.273Z,46.17
2023-04-16T19:36:11.761Z,45.11
2023-04-16T19:41:16.509Z,45.85
2023-04-16T19:46:20.023Z,44.60
2023-04-16T19:51:24.735Z,44.52
2023-04-16T19:56:29.562Z,44.18
2023-04-16T20:01:33.330Z,45.29
2023-04-16T20:06:36.769Z,45.97
2023-04-16T20:11:41.483Z,45.56
2023-04-16T20:16:44.889Z,45.70
2023-04-16T20:21:48.306Z,45.30
2023-04-16T20:26:53.045Z,44.61
2023-04-16T20:31:56.444Z,44.65
2023-04-16T20:36:59.793Z,45.33
2023-04-16T20:42:09.981Z,44.66
2023-04-16T20:47:14.733Z,45.19
2023-04-16T20:52:18.161Z,45.19
2023-04-16T20:57:23.017Z,44.40
2023-04-16T21:02:28.015Z,44.25
2023-04-16T21:07:31.981Z,45.02
2023-04-16T21:12:36.866Z,44.26
2023-04-16T21:17:40.284Z,44.26
2023-04-16T21:22:43.776Z,44.16
2023-04-16T21:27:48.621Z,44.22
2023-04-16T21:32:52.013Z,43.97
2023-04-16T21:37:55.413Z,43.07
2023-04-16T21:43:00.135Z,44.34
2023-04-16T21:48:03.556Z,43.78
2023-04-16T21:53:07.179Z,43.86
2023-04-16T21:58:11.943Z,43.71
2023-04-16T22:03:17.380Z,44.93
2023-04-16T22:08:24.902Z,44.82
2023-04-16T22:13:32.184Z,45.61
2023-04-16T22:18:37.403Z,44.83
2023-04-16T22:23:40.917Z,45.22
2023-04-16T22:28:46.528Z,45.12
2023-04-16T22:33:49.952Z,44.15
2023-04-16T22:38:53.354Z,44.28
2023-04-16T22:43:58.136Z,45.80
2023-04-16T22:49:01.494Z,44.87
2023-04-16T22:54:05.418Z,45.04
2023-04-16T22:59:10.585Z,43.74
2023-04-16T23:04:16.102Z,44.07
2023-04-16T23:09:20.461Z,44.29
2023-04-16T23:14:26.373Z,44.25
2023-04-16T23:19:31.051Z,43.58
2023-04-16T23:24:34.521Z,44.94
2023-04-16T23:29:39.427Z,44.62
2023-04-16T23:34:42.791Z,44.95
2023-04-16T23:39:46.200Z,47.59
2023-04-16T23:44:50.888Z,45.26
2023-04-16T23:49:54.246Z,44.93
2023-04-16T23:54:57.661Z,44.57
